sensor_id;sensor_type;location;lat;lon;timestamp;temperature;humidity
20862;DHT22;10591;52.532;13.348;2023-02-11T00:02:16;3.73;74.31
20862;DHT22;10591;52.532;13.348;2023-02-11T00:04:47;3.74;74.45
20862;DHT22;10591;52.532;13.348;2023-02-11T00:07:18;3.75;74.57
20862;DHT22;10591;52.532;13.348;2023-02-11T00:09:48;3.75;74.74
20862;DHT22;10591;52.532;13.348;2023-02-11T00:12:19;3.73;74.62
20862;DHT22;10591;52.532;13.348;2023-02-11T00:14:49;3.74;74.71
20862;DHT22;10591;52.532;13.348;2023-02-11T00:17:20;3.66;74.93
20862;DHT22;10591;52.532;13.348;2023-02-11T00:19:51;3.77;74.90
20862;DHT22;10591;52.532;13.348;2023-02-11T00:22:22;3.68;75.05
20862;DHT22;10591;52.532;13.348;2023-02-11T00:24:54;3.78;74.73
20862;DHT22;10591;52.532;13.348;2023-02-11T00:27:27;3.74;74.92
20862;DHT22;10591;52.532;13.348;2023-02-11T00:29:57;3.92;74.61
20862;DHT22;10591;52.532;13.348;2023-02-11T00:32:29;3.86;74.54
20862;DHT22;10591;52.532;13.348;2023-02-11T00:34:59;3.78;74.92
20862;DHT22;10591;52.532;13.348;2023-02-11T00:37:31;3.92;74.48
20862;DHT22;10591;52.532;13.348;2023-02-11T00:40:04;4.00;74.47
20862;DHT22;10591;52.532;13.348;2023-02-11T00:42:35;4.06;74.31
20862;DHT22;10591;52.532;13.348;2023-02-11T00:45:07;4.02;74.63
20862;DHT22;10591;52.532;13.348;2023-02-11T00:47:39;4.06;74.21
20862;DHT22;10591;52.532;13.348;2023-02-11T00:50:10;4.00;74.52
20862;DHT22;10591;52.532;13.348;2023-02-11T00:52:40;4.05;74.61
20862;DHT22;10591;52.532;13.348;2023-02-11T00:55:11;4.04;74.63
20862;DHT22;10591;52.532;13.348;2023-02-11T00:57:41;4.00;74.57
20862;DHT22;10591;52.532;13.348;2023-02-11T01:00:13;4.12;74.62
20862;DHT22;10591;52.532;13.348;2023-02-11T01:02:44;4.12;74.45
20862;DHT22;10591;52.532;13.348;2023-02-11T01:05:14;4.20;74.44
20862;DHT22;10591;52.532;13.348;2023-02-11T01:07:45;4.18;74.64
20862;DHT22;10591;52.532;13.348;2023-02-11T01:10:16;4.29;74.38
20862;DHT22;10591;52.532;13.348;2023-02-11T01:12:46;4.24;74.70
20862;DHT22;10591;52.532;13.348;2023-02-11T01:15:18;4.19;75.21
20862;DHT22;10591;52.532;13.348;2023-02-11T01:17:50;4.17;75.92
20862;DHT22;10591;52.532;13.348;2023-02-11T01:20:22;4.14;76.58
20862;DHT22;10591;52.532;13.348;2023-02-11T01:22:53;4.15;76.47
20862;DHT22;10591;52.532;13.348;2023-02-11T01:25:24;4.12;76.24
20862;DHT22;10591;52.532;13.348;2023-02-11T01:27:55;4.20;76.15
20862;DHT22;10591;52.532;13.348;2023-02-11T01:30:26;4.10;75.83
20862;DHT22;10591;52.532;13.348;2023-02-11T01:32:56;4.23;75.71
20862;DHT22;10591;52.532;13.348;2023-02-11T01:35:27;4.24;75.24
20862;DHT22;10591;52.532;13.348;2023-02-11T01:37:58;4.23;75.15
20862;DHT22;10591;52.532;13.348;2023-02-11T01:40:30;4.06;75.70
20862;DHT22;10591;52.532;13.348;2023-02-11T01:43:00;4.16;75.55
20862;DHT22;10591;52.532;13.348;2023-02-11T01:48:33;4.08;75.71
20862;DHT22;10591;52.532;13.348;2023-02-11T01:51:12;4.29;75.68
20862;DHT22;10591;52.532;13.348;2023-02-11T01:53:38;4.24;75.67
20862;DHT22;10591;52.532;13.348;2023-02-11T01:56:28;4.32;75.59
20862;DHT22;10591;52.532;13.348;2023-02-11T01:59:21;4.34;75.89
20862;DHT22;10591;52.532;13.348;2023-02-11T02:01:55;4.40;75.76
20862;DHT22;10591;52.532;13.348;2023-02-11T02:04:27;4.35;75.84
20862;DHT22;10591;52.532;13.348;2023-02-11T02:07:02;4.44;75.81
20862;DHT22;10591;52.532;13.348;2023-02-11T02:09:44;4.47;75.57
20862;DHT22;10591;52.532;13.348;2023-02-11T02:12:14;4.37;75.84
20862;DHT22;10591;52.532;13.348;2023-02-11T02:14:46;4.46;75.69
20862;DHT22;10591;52.532;13.348;2023-02-11T02:17:26;4.52;75.85
20862;DHT22;10591;52.532;13.348;2023-02-11T02:20:10;4.44;76.00
20862;DHT22;10591;52.532;13.348;2023-02-11T02:36:50;4.62;76.04
20862;DHT22;10591;52.532;13.348;2023-02-11T02:39:28;4.59;76.11
20862;DHT22;10591;52.532;13.348;2023-02-11T02:42:00;4.56;76.45
20862;DHT22;10591;52.532;13.348;2023-02-11T02:44:31;4.44;76.80
20862;DHT22;10591;52.532;13.348;2023-02-11T02:47:03;4.61;76.64
20862;DHT22;10591;52.532;13.348;2023-02-11T02:49:33;4.62;76.64
20862;DHT22;10591;52.532;13.348;2023-02-11T02:57:51;4.66;76.57
20862;DHT22;10591;52.532;13.348;2023-02-11T03:03:37;4.62;76.86
20862;DHT22;10591;52.532;13.348;2023-02-11T03:08:52;4.63;77.10
20862;DHT22;10591;52.532;13.348;2023-02-11T03:11:23;4.56;77.31
20862;DHT22;10591;52.532;13.348;2023-02-11T03:13:55;4.76;76.86
20862;DHT22;10591;52.532;13.348;2023-02-11T03:16:27;4.70;77.05
20862;DHT22;10591;52.532;13.348;2023-02-11T03:19:09;4.66;77.41
20862;DHT22;10591;52.532;13.348;2023-02-11T03:21:38;4.66;77.45
20862;DHT22;10591;52.532;13.348;2023-02-11T03:24:13;4.71;77.46
20862;DHT22;10591;52.532;13.348;2023-02-11T03:26:54;4.78;77.56
20862;DHT22;10591;52.532;13.348;2023-02-11T03:29:32;4.72;77.54
20862;DHT22;10591;52.532;13.348;2023-02-11T03:32:13;4.62;77.81
20862;DHT22;10591;52.532;13.348;2023-02-11T03:34:57;4.71;77.49
20862;DHT22;10591;52.532;13.348;2023-02-11T03:37:37;4.71;77.51
20862;DHT22;10591;52.532;13.348;2023-02-11T03:40:23;4.71;77.52
20862;DHT22;10591;52.532;13.348;2023-02-11T03:43:01;4.78;77.62
20862;DHT22;10591;52.532;13.348;2023-02-11T03:45:30;4.68;77.97
20862;DHT22;10591;52.532;13.348;2023-02-11T03:48:04;4.66;78.28
20862;DHT22;10591;52.532;13.348;2023-02-11T03:50:36;4.78;78.00
20862;DHT22;10591;52.532;13.348;2023-02-11T03:53:08;4.85;77.69
20862;DHT22;10591;52.532;13.348;2023-02-11T03:55:41;4.74;78.18
20862;DHT22;10591;52.532;13.348;2023-02-11T03:58:13;4.77;78.28
20862;DHT22;10591;52.532;13.348;2023-02-11T04:00:44;4.76;78.33
20862;DHT22;10591;52.532;13.348;2023-02-11T04:03:15;4.84;78.22
20862;DHT22;10591;52.532;13.348;2023-02-11T04:05:45;4.78;78.38
20862;DHT22;10591;52.532;13.348;2023-02-11T04:08:24;4.86;78.45
20862;DHT22;10591;52.532;13.348;2023-02-11T04:10:50;4.91;78.53
20862;DHT22;10591;52.532;13.348;2023-02-11T04:13:21;4.84;78.83
20862;DHT22;10591;52.532;13.348;2023-02-11T04:15:56;4.82;78.85
20862;DHT22;10591;52.532;13.348;2023-02-11T04:18:27;4.86;78.69
20862;DHT22;10591;52.532;13.348;2023-02-11T04:21:00;4.88;78.62
20862;DHT22;10591;52.532;13.348;2023-02-11T04:23:31;4.78;79.15
20862;DHT22;10591;52.532;13.348;2023-02-11T04:26:02;4.88;79.06
20862;DHT22;10591;52.532;13.348;2023-02-11T04:28:33;4.92;79.16
20862;DHT22;10591;52.532;13.348;2023-02-11T04:31:04;4.96;79.20
20862;DHT22;10591;52.532;13.348;2023-02-11T04:33:35;4.94;79.38
20862;DHT22;10591;52.532;13.348;2023-02-11T04:36:06;4.86;79.70
20862;DHT22;10591;52.532;13.348;2023-02-11T04:38:37;4.93;79.76
20862;DHT22;10591;52.532;13.348;2023-02-11T04:41:12;5.02;80.17
20862;DHT22;10591;52.532;13.348;2023-02-11T04:43:42;4.88;80.54
20862;DHT22;10591;52.532;13.348;2023-02-11T04:46:13;4.84;80.88
20862;DHT22;10591;52.532;13.348;2023-02-11T04:48:44;4.86;81.13
20862;DHT22;10591;52.532;13.348;2023-02-11T04:51:15;4.79;81.13
20862;DHT22;10591;52.532;13.348;2023-02-11T04:53:47;4.74;81.47
20862;DHT22;10591;52.532;13.348;2023-02-11T04:56:18;4.82;81.91
20862;DHT22;10591;52.532;13.348;2023-02-11T04:58:49;4.80;81.77
20862;DHT22;10591;52.532;13.348;2023-02-11T05:01:21;4.80;81.54
20862;DHT22;10591;52.532;13.348;2023-02-11T05:03:54;4.86;81.95
20862;DHT22;10591;52.532;13.348;2023-02-11T05:06:25;4.77;82.23
20862;DHT22;10591;52.532;13.348;2023-02-11T05:08:55;4.70;82.89
20862;DHT22;10591;52.532;13.348;2023-02-11T05:11:26;4.80;82.31
20862;DHT22;10591;52.532;13.348;2023-02-11T05:13:57;4.71;82.59
20862;DHT22;10591;52.532;13.348;2023-02-11T05:16:28;4.73;82.59
20862;DHT22;10591;52.532;13.348;2023-02-11T05:18:59;4.86;82.60
20862;DHT22;10591;52.532;13.348;2023-02-11T05:21:30;4.82;82.61
20862;DHT22;10591;52.532;13.348;2023-02-11T05:24:01;4.90;82.73
20862;DHT22;10591;52.532;13.348;2023-02-11T05:26:32;4.77;82.76
20862;DHT22;10591;52.532;13.348;2023-02-11T05:29:02;4.88;82.77
20862;DHT22;10591;52.532;13.348;2023-02-11T05:31:33;4.90;82.65
20862;DHT22;10591;52.532;13.348;2023-02-11T05:34:06;4.96;82.78
20862;DHT22;10591;52.532;13.348;2023-02-11T05:36:36;4.77;83.32
20862;DHT22;10591;52.532;13.348;2023-02-11T05:39:07;4.81;83.35
20862;DHT22;10591;52.532;13.348;2023-02-11T05:41:37;4.80;83.53
20862;DHT22;10591;52.532;13.348;2023-02-11T05:44:08;4.79;83.56
20862;DHT22;10591;52.532;13.348;2023-02-11T05:46:40;4.90;83.54
20862;DHT22;10591;52.532;13.348;2023-02-11T05:49:12;4.96;83.09
20862;DHT22;10591;52.532;13.348;2023-02-11T05:51:44;4.88;83.80
20862;DHT22;10591;52.532;13.348;2023-02-11T05:54:16;4.76;84.24
20862;DHT22;10591;52.532;13.348;2023-02-11T05:56:46;4.76;84.35
20862;DHT22;10591;52.532;13.348;2023-02-11T05:59:18;4.84;84.69
20862;DHT22;10591;52.532;13.348;2023-02-11T06:01:49;5.00;84.45
20862;DHT22;10591;52.532;13.348;2023-02-11T06:04:19;4.90;84.66
20862;DHT22;10591;52.532;13.348;2023-02-11T06:06:53;4.94;84.72
20862;DHT22;10591;52.532;13.348;2023-02-11T06:09:26;4.94;84.67
20862;DHT22;10591;52.532;13.348;2023-02-11T06:11:57;4.93;84.85
20862;DHT22;10591;52.532;13.348;2023-02-11T06:14:27;4.94;85.10
20862;DHT22;10591;52.532;13.348;2023-02-11T06:16:58;4.88;84.88
20862;DHT22;10591;52.532;13.348;2023-02-11T06:19:28;4.99;84.79
20862;DHT22;10591;52.532;13.348;2023-02-11T06:22:18;5.06;84.88
20862;DHT22;10591;52.532;13.348;2023-02-11T06:24:54;5.01;84.89
20862;DHT22;10591;52.532;13.348;2023-02-11T06:27:26;4.92;85.07
20862;DHT22;10591;52.532;13.348;2023-02-11T06:29:57;4.94;85.07
20862;DHT22;10591;52.532;13.348;2023-02-11T06:32:28;5.02;84.82
20862;DHT22;10591;52.532;13.348;2023-02-11T06:35:03;5.11;85.30
20862;DHT22;10591;52.532;13.348;2023-02-11T06:37:34;5.08;85.61
20862;DHT22;10591;52.532;13.348;2023-02-11T06:40:05;5.12;85.80
20862;DHT22;10591;52.532;13.348;2023-02-11T06:42:36;5.08;86.19
20862;DHT22;10591;52.532;13.348;2023-02-11T06:45:08;5.06;86.07
20862;DHT22;10591;52.532;13.348;2023-02-11T06:47:41;5.10;86.35
20862;DHT22;10591;52.532;13.348;2023-02-11T06:50:13;5.21;86.18
20862;DHT22;10591;52.532;13.348;2023-02-11T06:52:44;5.20;86.22
20862;DHT22;10591;52.532;13.348;2023-02-11T06:55:16;5.09;86.32
20862;DHT22;10591;52.532;13.348;2023-02-11T06:57:46;5.24;86.14
20862;DHT22;10591;52.532;13.348;2023-02-11T07:00:17;5.34;86.03
20862;DHT22;10591;52.532;13.348;2023-02-11T07:02:49;5.36;85.94
20862;DHT22;10591;52.532;13.348;2023-02-11T07:05:20;5.30;85.93
20862;DHT22;10591;52.532;13.348;2023-02-11T07:07:50;5.31;86.06
20862;DHT22;10591;52.532;13.348;2023-02-11T07:10:21;5.40;86.17
20862;DHT22;10591;52.532;13.348;2023-02-11T07:12:51;5.39;86.18
20862;DHT22;10591;52.532;13.348;2023-02-11T07:15:22;5.42;86.27
20862;DHT22;10591;52.532;13.348;2023-02-11T07:17:52;5.45;86.07
20862;DHT22;10591;52.532;13.348;2023-02-11T07:20:25;5.48;86.13
20862;DHT22;10591;52.532;13.348;2023-02-11T07:22:55;5.50;86.10
20862;DHT22;10591;52.532;13.348;2023-02-11T07:25:27;5.52;86.08
20862;DHT22;10591;52.532;13.348;2023-02-11T07:27:59;5.58;85.91
20862;DHT22;10591;52.532;13.348;2023-02-11T07:30:29;5.66;85.79
20862;DHT22;10591;52.532;13.348;2023-02-11T07:33:01;5.55;85.90
20862;DHT22;10591;52.532;13.348;2023-02-11T07:35:32;5.72;85.72
20862;DHT22;10591;52.532;13.348;2023-02-11T07:38:02;5.78;85.39
20862;DHT22;10591;52.532;13.348;2023-02-11T07:40:33;5.84;85.04
20862;DHT22;10591;52.532;13.348;2023-02-11T07:43:04;5.80;85.10
20862;DHT22;10591;52.532;13.348;2023-02-11T07:45:38;5.88;85.25
20862;DHT22;10591;52.532;13.348;2023-02-11T07:48:09;5.86;84.87
20862;DHT22;10591;52.532;13.348;2023-02-11T07:50:43;5.84;85.14
20862;DHT22;10591;52.532;13.348;2023-02-11T07:53:14;5.92;84.95
20862;DHT22;10591;52.532;13.348;2023-02-11T07:55:44;5.82;85.01
20862;DHT22;10591;52.532;13.348;2023-02-11T07:58:15;5.89;84.82
20862;DHT22;10591;52.532;13.348;2023-02-11T08:00:46;5.77;85.01
20862;DHT22;10591;52.532;13.348;2023-02-11T08:03:16;5.81;85.03
20862;DHT22;10591;52.532;13.348;2023-02-11T08:05:47;5.96;85.00
20862;DHT22;10591;52.532;13.348;2023-02-11T08:08:19;5.86;85.03
20862;DHT22;10591;52.532;13.348;2023-02-11T08:10:50;5.87;85.02
20862;DHT22;10591;52.532;13.348;2023-02-11T08:13:20;5.82;85.24
20862;DHT22;10591;52.532;13.348;2023-02-11T08:15:51;5.91;85.31
20862;DHT22;10591;52.532;13.348;2023-02-11T08:18:22;5.99;85.10
20862;DHT22;10591;52.532;13.348;2023-02-11T08:20:52;5.98;85.21
20862;DHT22;10591;52.532;13.348;2023-02-11T08:23:23;5.86;85.43
20862;DHT22;10591;52.532;13.348;2023-02-11T08:25:53;6.00;85.46
20862;DHT22;10591;52.532;13.348;2023-02-11T08:28:24;5.94;85.50
20862;DHT22;10591;52.532;13.348;2023-02-11T08:30:54;5.88;85.67
20862;DHT22;10591;52.532;13.348;2023-02-11T08:33:25;5.92;86.21
20862;DHT22;10591;52.532;13.348;2023-02-11T08:35:56;5.86;86.11
20862;DHT22;10591;52.532;13.348;2023-02-11T08:38:28;5.92;86.15
20862;DHT22;10591;52.532;13.348;2023-02-11T08:40:59;5.72;86.62
20862;DHT22;10591;52.532;13.348;2023-02-11T08:43:30;5.88;86.66
20862;DHT22;10591;52.532;13.348;2023-02-11T08:46:04;5.86;86.72
20862;DHT22;10591;52.532;13.348;2023-02-11T08:48:35;5.89;86.66
20862;DHT22;10591;52.532;13.348;2023-02-11T08:51:07;5.96;86.32
20862;DHT22;10591;52.532;13.348;2023-02-11T08:53:39;5.93;86.26
20862;DHT22;10591;52.532;13.348;2023-02-11T08:56:10;5.90;85.95
20862;DHT22;10591;52.532;13.348;2023-02-11T08:58:43;6.01;86.10
20862;DHT22;10591;52.532;13.348;2023-02-11T09:01:16;6.02;86.04
20862;DHT22;10591;52.532;13.348;2023-02-11T09:03:50;6.00;86.28
20862;DHT22;10591;52.532;13.348;2023-02-11T09:06:22;6.05;86.27
20862;DHT22;10591;52.532;13.348;2023-02-11T09:08:58;6.04;86.34
20862;DHT22;10591;52.532;13.348;2023-02-11T09:11:31;6.02;86.27
20862;DHT22;10591;52.532;13.348;2023-02-11T09:14:03;6.06;86.32
20862;DHT22;10591;52.532;13.348;2023-02-11T09:16:35;5.99;86.50
20862;DHT22;10591;52.532;13.348;2023-02-11T09:19:09;6.12;86.22
20862;DHT22;10591;52.532;13.348;2023-02-11T09:21:42;6.04;86.24
20862;DHT22;10591;52.532;13.348;2023-02-11T09:24:13;6.07;86.44
20862;DHT22;10591;52.532;13.348;2023-02-11T09:26:45;6.14;86.41
20862;DHT22;10591;52.532;13.348;2023-02-11T09:29:16;6.17;86.19
20862;DHT22;10591;52.532;13.348;2023-02-11T09:31:57;6.16;86.19
20862;DHT22;10591;52.532;13.348;2023-02-11T09:34:32;6.15;86.21
20862;DHT22;10591;52.532;13.348;2023-02-11T09:37:03;6.16;86.28
20862;DHT22;10591;52.532;13.348;2023-02-11T09:39:34;6.20;86.26
20862;DHT22;10591;52.532;13.348;2023-02-11T09:44:52;6.18;86.35
20862;DHT22;10591;52.532;13.348;2023-02-11T09:47:38;6.25;86.39
20862;DHT22;10591;52.532;13.348;2023-02-11T09:50:14;6.16;86.31
20862;DHT22;10591;52.532;13.348;2023-02-11T09:53:00;6.32;86.18
20862;DHT22;10591;52.532;13.348;2023-02-11T09:55:32;6.35;86.10
20862;DHT22;10591;52.532;13.348;2023-02-11T09:58:35;6.43;86.16
20862;DHT22;10591;52.532;13.348;2023-02-11T10:04:17;6.38;86.42
20862;DHT22;10591;52.532;13.348;2023-02-11T10:06:52;6.22;86.81
20862;DHT22;10591;52.532;13.348;2023-02-11T10:21:29;6.18;87.84
20862;DHT22;10591;52.532;13.348;2023-02-11T10:23:59;6.18;88.15
20862;DHT22;10591;52.532;13.348;2023-02-11T10:26:31;6.12;88.40
20862;DHT22;10591;52.532;13.348;2023-02-11T10:31:41;6.13;88.49
20862;DHT22;10591;52.532;13.348;2023-02-11T10:34:14;6.22;88.51
20862;DHT22;10591;52.532;13.348;2023-02-11T10:36:45;6.24;88.43
20862;DHT22;10591;52.532;13.348;2023-02-11T10:39:19;6.12;88.71
20862;DHT22;10591;52.532;13.348;2023-02-11T10:41:59;6.28;88.57
20862;DHT22;10591;52.532;13.348;2023-02-11T10:44:27;6.23;88.65
20862;DHT22;10591;52.532;13.348;2023-02-11T10:47:01;6.33;88.70
20862;DHT22;10591;52.532;13.348;2023-02-11T10:49:37;6.24;88.71
20862;DHT22;10591;52.532;13.348;2023-02-11T10:52:14;6.16;88.93
20862;DHT22;10591;52.532;13.348;2023-02-11T10:55:02;6.28;89.02
20862;DHT22;10591;52.532;13.348;2023-02-11T10:57:42;6.25;89.07
20862;DHT22;10591;52.532;13.348;2023-02-11T11:00:37;6.20;89.25
20862;DHT22;10591;52.532;13.348;2023-02-11T11:03:19;6.21;89.41
20862;DHT22;10591;52.532;13.348;2023-02-11T11:05:54;6.28;89.32
20862;DHT22;10591;52.532;13.348;2023-02-11T11:08:51;6.36;89.34
20862;DHT22;10591;52.532;13.348;2023-02-11T11:11:25;6.34;89.38
20862;DHT22;10591;52.532;13.348;2023-02-11T11:13:58;6.32;89.37
20862;DHT22;10591;52.532;13.348;2023-02-11T11:16:34;6.29;89.45
20862;DHT22;10591;52.532;13.348;2023-02-11T11:21:44;6.28;89.69
20862;DHT22;10591;52.532;13.348;2023-02-11T11:24:31;6.39;89.52
20862;DHT22;10591;52.532;13.348;2023-02-11T11:27:04;6.42;89.70
20862;DHT22;10591;52.532;13.348;2023-02-11T11:29:51;6.38;89.76
20862;DHT22;10591;52.532;13.348;2023-02-11T11:32:26;6.35;89.83
20862;DHT22;10591;52.532;13.348;2023-02-11T11:35:02;7.76;89.87
20862;DHT22;10591;52.532;13.348;2023-02-11T11:37:38;8.32;87.93
20862;DHT22;10591;52.532;13.348;2023-02-11T11:45:38;7.87;84.09
20862;DHT22;10591;52.532;13.348;2023-02-11T11:48:21;7.28;86.19
20862;DHT22;10591;52.532;13.348;2023-02-11T11:51:02;7.00;87.34
20862;DHT22;10591;52.532;13.348;2023-02-11T11:53:41;6.95;87.84
20862;DHT22;10591;52.532;13.348;2023-02-11T11:56:26;7.11;87.76
20862;DHT22;10591;52.532;13.348;2023-02-11T11:59:05;6.87;88.25
20862;DHT22;10591;52.532;13.348;2023-02-11T12:01:40;6.78;88.61
20862;DHT22;10591;52.532;13.348;2023-02-11T12:04:24;6.69;88.82
20862;DHT22;10591;52.532;13.348;2023-02-11T12:07:10;6.86;88.75
20862;DHT22;10591;52.532;13.348;2023-02-11T12:15:38;6.92;88.46
20862;DHT22;10591;52.532;13.348;2023-02-11T12:21:18;6.96;88.22
20862;DHT22;10591;52.532;13.348;2023-02-11T12:26:44;6.96;88.26
20862;DHT22;10591;52.532;13.348;2023-02-11T12:32:14;6.92;88.52
20862;DHT22;10591;52.532;13.348;2023-02-11T12:34:56;6.98;88.55
20862;DHT22;10591;52.532;13.348;2023-02-11T12:43:36;7.06;88.30
20862;DHT22;10591;52.532;13.348;2023-02-11T12:46:37;7.02;88.46
20862;DHT22;10591;52.532;13.348;2023-02-11T12:52:08;7.04;88.60
20862;DHT22;10591;52.532;13.348;2023-02-11T12:54:56;7.15;88.53
20862;DHT22;10591;52.532;13.348;2023-02-11T12:57:31;6.98;88.45
20862;DHT22;10591;52.532;13.348;2023-02-11T13:00:19;7.06;88.60
20862;DHT22;10591;52.532;13.348;2023-02-11T13:08:36;7.10;88.66
20862;DHT22;10591;52.532;13.348;2023-02-11T13:11:23;7.09;88.65
20862;DHT22;10591;52.532;13.348;2023-02-11T13:16:43;7.06;88.94
20862;DHT22;10591;52.532;13.348;2023-02-11T13:19:33;7.04;88.95
20862;DHT22;10591;52.532;13.348;2023-02-11T13:25:15;7.12;89.12
20862;DHT22;10591;52.532;13.348;2023-02-11T13:30:51;7.02;89.12
20862;DHT22;10591;52.532;13.348;2023-02-11T13:33:35;7.01;89.04
20862;DHT22;10591;52.532;13.348;2023-02-11T13:38:55;7.08;89.12
20862;DHT22;10591;52.532;13.348;2023-02-11T13:41:23;7.06;89.12
20862;DHT22;10591;52.532;13.348;2023-02-11T13:44:00;7.16;89.11
20862;DHT22;10591;52.532;13.348;2023-02-11T13:46:51;7.14;89.01
20862;DHT22;10591;52.532;13.348;2023-02-11T13:49:40;7.13;88.92
20862;DHT22;10591;52.532;13.348;2023-02-11T13:52:31;7.06;89.06
20862;DHT22;10591;52.532;13.348;2023-02-11T13:57:42;7.28;89.04
20862;DHT22;10591;52.532;13.348;2023-02-11T14:06:17;7.08;89.18
20862;DHT22;10591;52.532;13.348;2023-02-11T14:11:53;7.13;89.23
20862;DHT22;10591;52.532;13.348;2023-02-11T14:14:31;7.11;89.20
20862;DHT22;10591;52.532;13.348;2023-02-11T14:19:45;7.24;89.36
20862;DHT22;10591;52.532;13.348;2023-02-11T14:22:51;7.21;89.38
20862;DHT22;10591;52.532;13.348;2023-02-11T14:24:59;7.20;89.51
20862;DHT22;10591;52.532;13.348;2023-02-11T14:27:59;7.11;89.70
20862;DHT22;10591;52.532;13.348;2023-02-11T14:39:07;7.06;90.12
20862;DHT22;10591;52.532;13.348;2023-02-11T14:41:42;7.11;90.18
20862;DHT22;10591;52.532;13.348;2023-02-11T14:44:23;7.28;90.05
20862;DHT22;10591;52.532;13.348;2023-02-11T14:46:49;7.14;89.97
20862;DHT22;10591;52.532;13.348;2023-02-11T14:49:28;7.11;90.01
20862;DHT22;10591;52.532;13.348;2023-02-11T14:52:24;7.07;90.08
20862;DHT22;10591;52.532;13.348;2023-02-11T14:54:48;7.06;90.19
20862;DHT22;10591;52.532;13.348;2023-02-11T14:57:20;7.04;90.25
20862;DHT22;10591;52.532;13.348;2023-02-11T14:59:59;7.04;90.28
20862;DHT22;10591;52.532;13.348;2023-02-11T15:02:36;7.04;90.25
20862;DHT22;10591;52.532;13.348;2023-02-11T15:05:23;7.00;90.33
20862;DHT22;10591;52.532;13.348;2023-02-11T15:07:59;7.00;90.37
20862;DHT22;10591;52.532;13.348;2023-02-11T15:10:40;6.99;90.41
20862;DHT22;10591;52.532;13.348;2023-02-11T15:13:22;7.00;90.42
20862;DHT22;10591;52.532;13.348;2023-02-11T15:16:06;7.01;90.42
20862;DHT22;10591;52.532;13.348;2023-02-11T15:18:37;6.96;90.53
20862;DHT22;10591;52.532;13.348;2023-02-11T15:21:09;7.02;90.59
20862;DHT22;10591;52.532;13.348;2023-02-11T15:23:39;7.00;90.55
20862;DHT22;10591;52.532;13.348;2023-02-11T15:26:16;7.04;90.55
20862;DHT22;10591;52.532;13.348;2023-02-11T15:28:46;7.08;90.61
20862;DHT22;10591;52.532;13.348;2023-02-11T15:31:21;7.04;90.53
20862;DHT22;10591;52.532;13.348;2023-02-11T15:34:05;7.04;90.47
20862;DHT22;10591;52.532;13.348;2023-02-11T15:36:35;7.04;90.56
20862;DHT22;10591;52.532;13.348;2023-02-11T15:39:40;7.05;90.55
20862;DHT22;10591;52.532;13.348;2023-02-11T15:42:28;7.09;90.52
20862;DHT22;10591;52.532;13.348;2023-02-11T15:47:53;7.02;90.51
20862;DHT22;10591;52.532;13.348;2023-02-11T15:50:32;7.02;90.58
20862;DHT22;10591;52.532;13.348;2023-02-11T15:53:20;7.05;90.58
20862;DHT22;10591;52.532;13.348;2023-02-11T15:55:53;7.04;90.60
20862;DHT22;10591;52.532;13.348;2023-02-11T15:58:24;6.97;90.67
20862;DHT22;10591;52.532;13.348;2023-02-11T16:00:56;6.96;90.66
20862;DHT22;10591;52.532;13.348;2023-02-11T16:03:29;7.01;90.67
20862;DHT22;10591;52.532;13.348;2023-02-11T16:06:34;6.99;90.67
20862;DHT22;10591;52.532;13.348;2023-02-11T16:09:02;7.02;90.69
20862;DHT22;10591;52.532;13.348;2023-02-11T16:11:35;7.02;90.70
20862;DHT22;10591;52.532;13.348;2023-02-11T16:14:22;7.00;90.72
20862;DHT22;10591;52.532;13.348;2023-02-11T16:17:20;6.98;90.78
20862;DHT22;10591;52.532;13.348;2023-02-11T16:19:49;6.98;90.78
20862;DHT22;10591;52.532;13.348;2023-02-11T16:22:27;6.98;90.75
20862;DHT22;10591;52.532;13.348;2023-02-11T16:24:59;6.96;90.79
20862;DHT22;10591;52.532;13.348;2023-02-11T16:27:40;7.01;90.79
20862;DHT22;10591;52.532;13.348;2023-02-11T16:30:29;7.09;90.78
20862;DHT22;10591;52.532;13.348;2023-02-11T16:33:01;6.96;90.75
20862;DHT22;10591;52.532;13.348;2023-02-11T16:35:32;6.96;90.75
20862;DHT22;10591;52.532;13.348;2023-02-11T16:38:04;6.94;90.79
20862;DHT22;10591;52.532;13.348;2023-02-11T16:40:39;7.04;90.83
20862;DHT22;10591;52.532;13.348;2023-02-11T16:43:10;6.96;90.75
20862;DHT22;10591;52.532;13.348;2023-02-11T16:45:41;6.98;90.80
20862;DHT22;10591;52.532;13.348;2023-02-11T16:48:16;6.98;90.78
20862;DHT22;10591;52.532;13.348;2023-02-11T16:50:49;6.95;90.79
20862;DHT22;10591;52.532;13.348;2023-02-11T16:53:23;6.93;90.83
20862;DHT22;10591;52.532;13.348;2023-02-11T16:55:55;6.95;90.79
20862;DHT22;10591;52.532;13.348;2023-02-11T16:58:30;7.02;90.80
20862;DHT22;10591;52.532;13.348;2023-02-11T17:01:02;7.01;90.76
20862;DHT22;10591;52.532;13.348;2023-02-11T17:03:33;7.02;90.79
20862;DHT22;10591;52.532;13.348;2023-02-11T17:06:09;7.02;90.74
20862;DHT22;10591;52.532;13.348;2023-02-11T17:08:41;7.00;90.72
20862;DHT22;10591;52.532;13.348;2023-02-11T17:11:13;7.04;90.75
20862;DHT22;10591;52.532;13.348;2023-02-11T17:13:49;7.02;90.75
20862;DHT22;10591;52.532;13.348;2023-02-11T17:16:21;7.06;90.73
20862;DHT22;10591;52.532;13.348;2023-02-11T17:18:54;7.07;90.73
20862;DHT22;10591;52.532;13.348;2023-02-11T17:21:25;7.08;90.69
20862;DHT22;10591;52.532;13.348;2023-02-11T17:23:59;7.06;90.71
20862;DHT22;10591;52.532;13.348;2023-02-11T17:26:29;7.04;90.76
20862;DHT22;10591;52.532;13.348;2023-02-11T17:29:00;7.04;90.77
20862;DHT22;10591;52.532;13.348;2023-02-11T17:31:33;7.00;90.80
20862;DHT22;10591;52.532;13.348;2023-02-11T17:34:06;7.17;90.80
20862;DHT22;10591;52.532;13.348;2023-02-11T17:36:36;7.06;90.73
20862;DHT22;10591;52.532;13.348;2023-02-11T17:39:08;7.10;90.74
20862;DHT22;10591;52.532;13.348;2023-02-11T17:41:40;7.10;90.74
20862;DHT22;10591;52.532;13.348;2023-02-11T17:44:12;7.07;90.73
20862;DHT22;10591;52.532;13.348;2023-02-11T17:46:44;7.10;90.78
20862;DHT22;10591;52.532;13.348;2023-02-11T17:49:15;7.05;90.77
20862;DHT22;10591;52.532;13.348;2023-02-11T17:51:45;7.05;90.80
20862;DHT22;10591;52.532;13.348;2023-02-11T17:54:17;7.04;90.80
20862;DHT22;10591;52.532;13.348;2023-02-11T17:56:48;7.07;90.78
20862;DHT22;10591;52.532;13.348;2023-02-11T17:59:20;7.06;90.69
20862;DHT22;10591;52.532;13.348;2023-02-11T18:01:50;7.05;90.65
20862;DHT22;10591;52.532;13.348;2023-02-11T18:04:21;7.12;90.62
20862;DHT22;10591;52.532;13.348;2023-02-11T18:06:53;7.12;90.55
20862;DHT22;10591;52.532;13.348;2023-02-11T18:09:24;7.14;90.54
20862;DHT22;10591;52.532;13.348;2023-02-11T18:11:55;7.16;90.46
20862;DHT22;10591;52.532;13.348;2023-02-11T18:14:28;7.10;90.48
20862;DHT22;10591;52.532;13.348;2023-02-11T18:16:59;7.10;90.50
20862;DHT22;10591;52.532;13.348;2023-02-11T18:19:32;7.18;90.50